createdAt,value
2022-08-22T00:00:53.868Z,15.13
2022-08-22T00:03:08.441Z,15.63
2022-08-22T00:03:39.975Z,15.14
2022-08-22T00:06:15.178Z,15.10
2022-08-22T00:08:55.547Z,15.15
2022-08-22T00:11:34.854Z,15.10
2022-08-22T00:14:08.752Z,15.12
2022-08-22T00:16:50.942Z,15.04
2022-08-22T00:19:27.156Z,15.06
2022-08-22T00:22:02.090Z,14.90
2022-08-22T00:24:34.326Z,14.95
2022-08-22T00:27:08.530Z,14.89
2022-08-22T00:29:42.395Z,14.92
2022-08-22T00:32:16.679Z,14.99
2022-08-22T00:34:51.937Z,15.02
2022-08-22T00:37:25.774Z,14.87
2022-08-22T00:40:00.046Z,14.86
2022-08-22T00:42:48.387Z,14.86
2022-08-22T00:45:33.803Z,14.81
2022-08-22T00:48:35.486Z,14.75
2022-08-22T00:51:25.675Z,14.76
2022-08-22T00:54:00.991Z,14.75
2022-08-22T00:57:14.459Z,14.77
2022-08-22T01:00:10.081Z,14.70
2022-08-22T01:02:59.399Z,14.66
2022-08-22T01:05:40.083Z,14.70
2022-08-22T01:08:25.256Z,14.61
2022-08-22T01:11:06.444Z,14.60
2022-08-22T01:14:01.318Z,14.60
2022-08-22T01:16:51.721Z,14.67
2022-08-22T01:19:59.498Z,14.68
2022-08-22T01:23:02.578Z,14.66
2022-08-22T01:26:12.397Z,14.70
2022-08-22T01:29:09.476Z,14.77
2022-08-22T01:32:20.526Z,14.74
2022-08-22T01:35:16.732Z,14.72
2022-08-22T01:38:05.245Z,14.76
2022-08-22T01:41:04.143Z,14.77
2022-08-22T01:44:00.669Z,14.74
2022-08-22T01:46:37.716Z,14.84
2022-08-22T01:49:18.604Z,14.82
2022-08-22T01:51:54.485Z,14.77
2022-08-22T01:54:27.753Z,14.75
2022-08-22T01:57:02.062Z,14.73
2022-08-22T01:59:33.935Z,14.71
2022-08-22T02:02:12.676Z,14.77
2022-08-22T02:04:45.512Z,14.72
2022-08-22T02:07:20.955Z,14.72
2022-08-22T02:10:09.148Z,14.67
2022-08-22T02:12:45.430Z,14.67
2022-08-22T02:15:22.082Z,14.69
2022-08-22T02:18:03.980Z,14.80
2022-08-22T02:20:37.326Z,14.72
2022-08-22T02:23:18.581Z,14.97
2022-08-22T02:25:53.824Z,14.80
2022-08-22T02:28:32.954Z,14.66
2022-08-22T02:31:06.393Z,14.62
2022-08-22T02:33:43.140Z,14.70
2022-08-22T02:36:18.004Z,14.72
2022-08-22T02:38:59.495Z,14.70
2022-08-22T02:41:32.102Z,14.65
2022-08-22T02:44:04.381Z,14.60
2022-08-22T02:46:42.891Z,14.66
2022-08-22T02:49:17.734Z,14.64
2022-08-22T02:51:52.406Z,14.61
2022-08-22T02:54:27.067Z,14.67
2022-08-22T02:57:01.006Z,14.44
2022-08-22T02:59:35.447Z,14.22
2022-08-22T03:02:28.539Z,14.20
2022-08-22T03:05:00.762Z,14.23
2022-08-22T03:07:37.468Z,14.35
2022-08-22T03:10:18.609Z,14.38
2022-08-22T03:12:57.504Z,14.45
2022-08-22T03:15:32.439Z,14.42
2022-08-22T03:18:07.636Z,14.45
2022-08-22T03:20:53.926Z,14.45
2022-08-22T03:23:35.104Z,14.40
2022-08-22T03:26:14.347Z,14.43
2022-08-22T03:28:59.427Z,14.48
2022-08-22T03:31:29.780Z,14.55
2022-08-22T03:34:20.250Z,14.36
2022-08-22T03:36:59.262Z,14.47
2022-08-22T03:39:45.968Z,14.35
2022-08-22T03:42:31.818Z,14.43
2022-08-22T03:45:27.463Z,14.26
2022-08-22T03:48:25.748Z,14.22
2022-08-22T03:51:23.247Z,14.29
2022-08-22T03:54:35.105Z,14.31
2022-08-22T03:57:41.022Z,14.29
2022-08-22T04:00:22.249Z,14.42
2022-08-22T04:03:25.392Z,14.28
2022-08-22T04:06:12.747Z,14.28
2022-08-22T04:09:11.715Z,14.40
2022-08-22T04:12:02.518Z,14.46
2022-08-22T04:15:02.355Z,14.47
2022-08-22T04:18:00.634Z,14.45
2022-08-22T04:20:48.730Z,14.48
2022-08-22T04:23:56.599Z,14.55
2022-08-22T04:26:34.149Z,14.54
2022-08-22T04:29:06.510Z,14.54
2022-08-22T04:31:42.410Z,14.59
2022-08-22T04:34:19.186Z,14.61
2022-08-22T04:36:51.435Z,14.66
2022-08-22T04:39:22.738Z,14.78
2022-08-22T04:42:03.519Z,14.79
2022-08-22T04:44:44.620Z,14.88
2022-08-22T04:47:25.070Z,14.93
2022-08-22T04:50:00.961Z,14.97
2022-08-22T04:52:37.168Z,15.03
2022-08-22T04:55:18.570Z,15.10
2022-08-22T04:57:55.515Z,15.15
2022-08-22T05:00:23.802Z,15.19
2022-08-22T05:02:55.973Z,15.26
2022-08-22T05:05:31.973Z,15.33
2022-08-22T05:08:02.730Z,15.39
2022-08-22T05:10:37.615Z,15.47
2022-08-22T05:13:09.626Z,15.52
2022-08-22T05:15:41.369Z,15.56
2022-08-22T05:18:14.117Z,15.60
2022-08-22T05:20:49.322Z,15.74
2022-08-22T05:23:19.908Z,15.73
2022-08-22T05:25:51.808Z,15.78
2022-08-22T05:28:29.668Z,15.82
2022-08-22T05:30:57.859Z,15.87
2022-08-22T05:33:30.931Z,15.92
2022-08-22T05:36:03.746Z,15.99
2022-08-22T05:38:35.243Z,16.03
2022-08-22T05:41:07.285Z,16.03
2022-08-22T05:43:39.016Z,16.10
2022-08-22T05:46:10.509Z,16.17
2022-08-22T05:48:43.701Z,16.24
2022-08-22T05:51:18.739Z,16.22
2022-08-22T05:53:51.590Z,16.35
2022-08-22T05:56:27.267Z,16.35
2022-08-22T05:58:59.953Z,16.16
2022-08-22T06:01:32.825Z,16.17
2022-08-22T06:04:07.566Z,16.34
2022-08-22T06:06:42.444Z,16.56
2022-08-22T06:09:18.618Z,16.61
2022-08-22T06:11:51.737Z,16.80
2022-08-22T06:14:28.797Z,16.78
2022-08-22T06:17:03.865Z,16.83
2022-08-22T06:19:36.640Z,17.09
2022-08-22T06:22:06.645Z,17.06
2022-08-22T06:24:38.225Z,16.95
2022-08-22T06:27:09.978Z,17.00
2022-08-22T06:29:40.562Z,17.14
2022-08-22T06:32:13.428Z,17.21
2022-08-22T06:34:43.885Z,17.33
2022-08-22T06:37:18.964Z,17.48
2022-08-22T06:39:50.913Z,17.59
2022-08-22T06:42:22.706Z,17.61
2022-08-22T06:44:53.394Z,17.81
2022-08-22T06:47:24.979Z,17.94
2022-08-22T06:49:57.145Z,18.03
2022-08-22T06:52:29.543Z,18.03
2022-08-22T06:55:00.412Z,18.11
2022-08-22T06:57:32.699Z,18.17
2022-08-22T07:00:03.636Z,18.25
2022-08-22T07:02:37.646Z,18.35
2022-08-22T07:05:07.398Z,18.22
2022-08-22T07:07:37.120Z,18.08
2022-08-22T07:10:06.166Z,18.27
2022-08-22T07:12:37.957Z,18.44
2022-08-22T07:15:14.178Z,18.46
2022-08-22T07:17:51.421Z,18.68
2022-08-22T07:20:25.574Z,18.59
2022-08-22T07:22:58.212Z,18.66
2022-08-22T07:25:26.562Z,18.78
2022-08-22T07:28:04.944Z,18.69
2022-08-22T07:30:50.487Z,18.73
2022-08-22T07:33:39.949Z,18.83
2022-08-22T07:36:23.131Z,19.06
2022-08-22T07:39:04.867Z,19.20
2022-08-22T07:41:54.731Z,19.38
2022-08-22T07:44:25.387Z,19.33
2022-08-22T07:47:00.569Z,19.20
2022-08-22T07:49:33.319Z,19.14
2022-08-22T07:52:08.004Z,19.17
2022-08-22T07:54:42.404Z,19.18
2022-08-22T07:57:14.643Z,19.34
2022-08-22T07:59:46.699Z,19.61
2022-08-22T08:02:16.788Z,19.56
2022-08-22T08:04:44.937Z,19.70
2022-08-22T08:07:15.856Z,19.91
2022-08-22T08:09:49.010Z,19.94
2022-08-22T08:12:20.315Z,20.06
2022-08-22T08:14:53.353Z,20.37
2022-08-22T08:17:30.043Z,20.58
2022-08-22T08:20:03.908Z,20.94
2022-08-22T08:22:32.392Z,21.15
2022-08-22T08:25:02.487Z,21.36
2022-08-22T08:27:52.790Z,21.30
2022-08-22T08:30:23.839Z,20.90
2022-08-22T08:32:57.481Z,21.11
2022-08-22T08:36:01.952Z,21.21
2022-08-22T08:38:33.628Z,21.47
2022-08-22T08:41:38.710Z,21.85
2022-08-22T08:44:18.794Z,22.21
2022-08-22T08:47:10.103Z,22.48
2022-08-22T08:49:50.588Z,22.40
2022-08-22T08:52:28.702Z,22.81
2022-08-22T08:55:22.017Z,22.94
2022-08-22T08:58:13.932Z,22.66
2022-08-22T09:00:55.833Z,22.16
2022-08-22T09:03:51.244Z,21.96
2022-08-22T09:07:01.503Z,22.11
2022-08-22T09:09:55.967Z,21.76
2022-08-22T09:13:12.363Z,21.99
2022-08-22T09:16:05.047Z,22.20
2022-08-22T09:19:02.660Z,22.03
2022-08-22T09:22:05.425Z,22.29
2022-08-22T09:25:10.151Z,22.27
2022-08-22T09:27:46.618Z,22.59
2022-08-22T09:30:17.193Z,22.81
2022-08-22T09:32:55.775Z,22.36
2022-08-22T09:35:31.611Z,22.54
2022-08-22T09:38:19.543Z,22.58
2022-08-22T09:40:51.717Z,22.76
2022-08-22T09:43:22.785Z,22.46
2022-08-22T09:46:02.297Z,21.99
2022-08-22T09:49:01.154Z,21.98
2022-08-22T09:51:39.564Z,22.37
2022-08-22T09:54:18.802Z,22.47
2022-08-22T09:56:58.261Z,22.69
2022-08-22T09:59:49.950Z,22.38
2022-08-22T10:02:29.023Z,22.51
2022-08-22T10:05:08.321Z,22.32
2022-08-22T10:07:52.859Z,22.66
2022-08-22T10:10:37.051Z,22.62
2022-08-22T10:13:14.399Z,23.23
2022-08-22T10:15:47.378Z,23.05
2022-08-22T10:18:23.880Z,23.45
2022-08-22T10:21:09.365Z,23.47
2022-08-22T10:23:41.063Z,23.51
2022-08-22T10:26:22.870Z,23.54
2022-08-22T10:28:57.606Z,23.05
2022-08-22T10:31:34.911Z,22.84
2022-08-22T10:34:16.977Z,22.95
2022-08-22T10:36:56.652Z,23.14
2022-08-22T10:39:27.400Z,23.30
2022-08-22T10:42:23.136Z,22.89
2022-08-22T10:45:07.834Z,22.83
2022-08-22T10:47:36.707Z,23.08
2022-08-22T10:50:12.101Z,23.18
2022-08-22T10:52:47.312Z,23.35
2022-08-22T10:55:21.422Z,22.95
2022-08-22T10:58:02.864Z,23.01
2022-08-22T11:00:50.060Z,23.06
2022-08-22T11:03:24.837Z,23.52
2022-08-22T11:05:55.225Z,23.50
2022-08-22T11:09:08.968Z,23.24
2022-08-22T11:11:42.757Z,23.37
2022-08-22T11:14:35.107Z,23.45
2022-08-22T11:17:30.252Z,22.88
2022-08-22T11:20:24.043Z,22.94
2022-08-22T11:23:12.228Z,23.60
2022-08-22T11:25:52.477Z,23.45
2022-08-22T11:28:54.244Z,23.92
2022-08-22T11:31:31.723Z,23.58
2022-08-22T11:34:11.440Z,23.33
2022-08-22T11:36:46.664Z,23.13
2022-08-22T11:39:24.408Z,23.22
2022-08-22T11:41:59.365Z,22.83
2022-08-22T11:44:34.467Z,22.83
2022-08-22T11:47:14.456Z,22.92
2022-08-22T11:49:53.496Z,23.27
2022-08-22T11:52:26.816Z,22.93
2022-08-22T11:55:08.514Z,22.74
2022-08-22T11:57:41.820Z,23.00
2022-08-22T12:00:22.782Z,22.96
2022-08-22T12:03:24.822Z,23.18
2022-08-22T12:05:56.446Z,23.17
2022-08-22T12:09:11.318Z,23.30
2022-08-22T12:11:47.604Z,23.28
2022-08-22T12:14:27.050Z,23.19
2022-08-22T12:17:08.802Z,23.15
2022-08-22T12:20:12.725Z,22.96
2022-08-22T12:23:06.047Z,23.32
2022-08-22T12:25:54.632Z,22.94
2022-08-22T12:28:33.501Z,22.69
2022-08-22T12:31:13.050Z,23.13
2022-08-22T12:33:51.683Z,23.29
2022-08-22T12:36:33.770Z,22.77
2022-08-22T12:39:24.287Z,22.81
2022-08-22T12:42:19.867Z,23.06
2022-08-22T12:45:07.723Z,23.54
2022-08-22T12:47:49.389Z,23.19
2022-08-22T12:50:28.378Z,23.00
2022-08-22T12:53:21.120Z,23.04
2022-08-22T12:56:05.082Z,23.05
2022-08-22T12:58:51.036Z,23.03
2022-08-22T13:01:20.029Z,22.79
2022-08-22T13:03:56.179Z,22.53
2022-08-22T13:06:50.082Z,22.61
2022-08-22T13:09:28.868Z,22.82
2022-08-22T13:12:02.295Z,22.79
2022-08-22T13:14:34.947Z,22.79
2022-08-22T13:17:10.253Z,22.77
2022-08-22T13:20:01.939Z,22.54
2022-08-22T13:22:33.473Z,22.69
2022-08-22T13:25:06.421Z,22.64
2022-08-22T13:27:50.779Z,22.77
2022-08-22T13:30:23.957Z,22.77
2022-08-22T13:32:54.562Z,22.90
2022-08-22T13:35:27.588Z,22.82
2022-08-22T13:38:12.243Z,22.83
2022-08-22T13:40:45.644Z,22.70
2022-08-22T13:43:19.128Z,22.62
2022-08-22T13:45:55.758Z,22.73
2022-08-22T13:48:28.555Z,22.60
2022-08-22T13:51:08.155Z,22.65
2022-08-22T13:53:49.743Z,22.48
2022-08-22T13:56:36.395Z,22.61
2022-08-22T13:59:07.694Z,22.46
2022-08-22T14:01:48.918Z,22.49
2022-08-22T14:04:33.466Z,22.74
2022-08-22T14:07:24.189Z,22.89
2022-08-22T14:09:57.459Z,22.72
2022-08-22T14:12:32.350Z,22.67
2022-08-22T14:15:03.359Z,22.91
2022-08-22T14:17:38.493Z,22.93
2022-08-22T14:20:13.834Z,23.55
2022-08-22T14:23:04.727Z,23.53
2022-08-22T14:25:36.759Z,22.94
2022-08-22T14:28:09.333Z,23.32
2022-08-22T14:30:58.207Z,23.60
2022-08-22T14:33:35.050Z,23.40
2022-08-22T14:36:12.186Z,22.97
2022-08-22T14:38:47.963Z,22.83
2022-08-22T14:41:28.406Z,22.87
2022-08-22T14:44:22.810Z,22.86
2022-08-22T14:46:55.841Z,22.50
2022-08-22T14:49:35.015Z,22.71
2022-08-22T14:52:09.734Z,22.99
2022-08-22T14:54:38.094Z,22.98
2022-08-22T14:57:12.722Z,23.01
2022-08-22T14:59:50.855Z,23.02
2022-08-22T15:02:28.455Z,23.28
2022-08-22T15:05:01.504Z,23.08
2022-08-22T15:07:34.613Z,22.51
2022-08-22T15:10:08.278Z,22.34
2022-08-22T15:12:46.505Z,22.13
2022-08-22T15:15:30.426Z,22.33
2022-08-22T15:17:57.967Z,22.53
2022-08-22T15:20:33.041Z,22.62
2022-08-22T15:23:09.796Z,22.57
2022-08-22T15:25:41.142Z,22.40
2022-08-22T15:28:20.393Z,22.48
2022-08-22T15:31:03.549Z,22.56
2022-08-22T15:33:34.644Z,22.29
2022-08-22T15:36:15.716Z,22.52
2022-08-22T15:38:48.302Z,22.64
2022-08-22T15:41:44.112Z,22.42
2022-08-22T15:44:32.283Z,22.60
2022-08-22T15:47:11.588Z,22.63
2022-08-22T15:49:55.478Z,22.58
2022-08-22T15:52:29.370Z,22.55
2022-08-22T15:55:18.447Z,22.52
2022-08-22T15:58:06.560Z,22.57
2022-08-22T16:00:43.819Z,22.55
2022-08-22T16:03:15.675Z,22.52
2022-08-22T16:05:53.167Z,22.23
2022-08-22T16:08:28.097Z,22.32
2022-08-22T16:11:22.154Z,22.48
2022-08-22T16:14:21.548Z,22.57
2022-08-22T16:17:01.830Z,22.47
2022-08-22T16:19:31.327Z,22.38
2022-08-22T16:22:13.123Z,22.26
2022-08-22T16:25:08.705Z,22.18
2022-08-22T16:27:56.983Z,22.20
2022-08-22T16:30:37.804Z,21.86
2022-08-22T16:33:07.015Z,21.88
2022-08-22T16:36:15.244Z,21.89
2022-08-22T16:38:45.123Z,22.02
2022-08-22T16:41:36.491Z,22.04
2022-08-22T16:44:38.374Z,21.89
2022-08-22T16:47:16.726Z,21.83
2022-08-22T16:50:04.657Z,21.81
2022-08-22T16:52:53.807Z,21.68
2022-08-22T16:55:41.829Z,21.49
2022-08-22T16:58:44.758Z,21.54
2022-08-22T17:01:21.661Z,21.69
2022-08-22T17:04:01.440Z,21.53
2022-08-22T17:06:43.078Z,21.63
2022-08-22T17:09:27.051Z,21.63
2022-08-22T17:12:03.457Z,21.67
2022-08-22T17:14:43.932Z,21.72
2022-08-22T17:17:29.414Z,21.54
2022-08-22T17:20:17.763Z,21.59
2022-08-22T17:22:59.882Z,21.63
2022-08-22T17:25:34.875Z,21.68
2022-08-22T17:28:18.613Z,21.71
2022-08-22T17:30:59.615Z,21.74
2022-08-22T17:33:57.247Z,21.42
2022-08-22T17:36:34.972Z,21.18
2022-08-22T17:39:13.053Z,20.89
2022-08-22T17:41:51.165Z,21.02
2022-08-22T17:44:29.941Z,20.87
2022-08-22T17:47:07.103Z,20.86
2022-08-22T17:49:49.175Z,21.01
2022-08-22T17:52:23.310Z,20.87
2022-08-22T17:54:57.097Z,20.72
2022-08-22T17:57:31.596Z,20.61
2022-08-22T18:00:04.588Z,20.71
2022-08-22T18:02:39.677Z,20.82
2022-08-22T18:05:13.802Z,20.85
2022-08-22T18:07:54.576Z,20.67
2022-08-22T18:10:38.319Z,20.80
2022-08-22T18:13:13.079Z,20.73
2022-08-22T18:15:47.950Z,20.56
2022-08-22T18:18:30.351Z,20.41
2022-08-22T18:21:06.353Z,20.34
2022-08-22T18:23:39.895Z,20.57
2022-08-22T18:26:18.668Z,20.56
2022-08-22T18:28:54.098Z,20.74
2022-08-22T18:31:41.760Z,20.69
2022-08-22T18:34:21.465Z,20.75
2022-08-22T18:36:55.950Z,20.72
2022-08-22T18:39:29.130Z,20.66
2022-08-22T18:44:56.989Z,20.54
2022-08-22T18:47:28.037Z,20.56
2022-08-22T18:49:57.914Z,20.51
2022-08-22T18:52:44.455Z,20.46
2022-08-22T18:55:50.458Z,20.32
2022-08-22T18:58:49.426Z,20.35
2022-08-22T19:01:46.517Z,20.18
2022-08-22T19:04:31.264Z,20.33
2022-08-22T19:07:30.921Z,20.28
2022-08-22T19:10:20.519Z,20.10
2022-08-22T19:13:02.656Z,20.01
2022-08-22T19:15:40.603Z,20.11
2022-08-22T19:18:37.184Z,19.95
2022-08-22T19:21:40.540Z,20.08
2022-08-22T19:24:13.249Z,20.02
2022-08-22T19:26:43.642Z,19.78
2022-08-22T19:29:48.529Z,19.66
2022-08-22T19:32:45.756Z,19.64
2022-08-22T19:35:20.653Z,19.57
2022-08-22T19:37:56.391Z,19.60
2022-08-22T19:40:53.242Z,19.65
2022-08-22T19:43:31.660Z,19.80
2022-08-22T19:46:01.062Z,19.60
2022-08-22T19:48:31.509Z,19.64
2022-08-22T19:51:13.623Z,19.46
2022-08-22T19:53:50.522Z,19.54
2022-08-22T19:56:37.487Z,19.42
2022-08-22T19:59:20.487Z,19.24
2022-08-22T20:01:58.584Z,19.08
2022-08-22T20:04:49.349Z,19.08
2022-08-22T20:07:29.437Z,18.99
2022-08-22T20:10:09.135Z,19.03
2022-08-22T20:12:46.490Z,18.96
2022-08-22T20:15:19.554Z,19.06
2022-08-22T20:18:11.632Z,18.81
2022-08-22T20:20:39.741Z,18.87
2022-08-22T20:23:16.081Z,18.84
2022-08-22T20:25:49.325Z,18.88
2022-08-22T20:28:36.834Z,18.95
2022-08-22T20:31:08.124Z,18.83
2022-08-22T20:33:38.291Z,18.74
2022-08-22T20:36:18.565Z,18.16
2022-08-22T20:38:59.533Z,18.30
2022-08-22T20:41:31.848Z,18.32
2022-08-22T20:44:06.837Z,18.41
2022-08-22T20:46:47.352Z,18.51
2022-08-22T20:49:24.646Z,18.49
2022-08-22T20:51:56.433Z,18.44
2022-08-22T20:54:26.085Z,18.51
2022-08-22T20:56:56.924Z,18.48
2022-08-22T20:59:29.549Z,18.48
2022-08-22T21:02:04.831Z,18.39
2022-08-22T21:04:42.800Z,18.40
2022-08-22T21:07:11.315Z,18.50
2022-08-22T21:09:56.800Z,18.60
2022-08-22T21:12:26.235Z,18.61
2022-08-22T21:14:55.022Z,18.70
2022-08-22T21:17:26.232Z,18.65
2022-08-22T21:19:53.902Z,18.71
2022-08-22T21:22:31.635Z,18.48
2022-08-22T21:25:01.256Z,18.25
2022-08-22T21:27:30.964Z,18.33
2022-08-22T21:30:01.107Z,18.38
2022-08-22T21:32:34.362Z,18.41
2022-08-22T21:35:04.011Z,18.40
2022-08-22T21:37:38.620Z,18.29
2022-08-22T21:40:15.174Z,18.07
2022-08-22T21:42:45.743Z,17.62
2022-08-22T21:45:27.715Z,17.39
2022-08-22T21:47:55.424Z,17.45
2022-08-22T21:50:31.626Z,17.81
2022-08-22T21:53:10.308Z,17.85
2022-08-22T21:55:42.793Z,17.81
2022-08-22T21:58:37.180Z,17.88
2022-08-22T22:01:27.680Z,17.96
2022-08-22T22:03:57.388Z,18.06
2022-08-22T22:06:24.766Z,18.09
2022-08-22T22:08:52.217Z,18.07
2022-08-22T22:11:19.650Z,18.03
2022-08-22T22:13:47.206Z,18.02
2022-08-22T22:16:19.236Z,18.11
2022-08-22T22:18:46.623Z,18.00
2022-08-22T22:21:15.334Z,17.91
2022-08-22T22:23:42.733Z,17.84
2022-08-22T22:26:10.823Z,17.82
2022-08-22T22:28:40.845Z,17.92
2022-08-22T22:31:09.306Z,17.88
2022-08-22T22:33:40.220Z,17.79
2022-08-22T22:36:11.654Z,17.81
2022-08-22T22:38:41.569Z,17.53
2022-08-22T22:41:09.212Z,17.62
2022-08-22T22:43:36.864Z,17.53
2022-08-22T22:46:04.352Z,17.38
2022-08-22T22:48:32.744Z,17.12
2022-08-22T22:51:00.245Z,16.92
2022-08-22T22:53:33.762Z,16.88
2022-08-22T22:56:09.610Z,17.05
2022-08-22T22:58:37.438Z,17.29
2022-08-22T23:01:08.484Z,17.48
2022-08-22T23:03:36.154Z,17.40
2022-08-22T23:06:03.686Z,17.09
2022-08-22T23:08:31.320Z,16.86
2022-08-22T23:10:58.710Z,16.75
2022-08-22T23:13:27.406Z,16.69
2022-08-22T23:15:54.776Z,16.65
2022-08-22T23:18:30.302Z,16.58
2022-08-22T23:20:58.130Z,16.81
2022-08-22T23:23:25.983Z,16.98
2022-08-22T23:25:53.347Z,17.20
2022-08-22T23:28:20.722Z,17.26
2022-08-22T23:30:49.497Z,17.39
2022-08-22T23:33:16.924Z,17.55
2022-08-22T23:35:44.317Z,17.65
2022-08-22T23:38:11.814Z,17.61
2022-08-22T23:40:39.206Z,17.46
2022-08-22T23:43:06.584Z,17.56
2022-08-22T23:45:33.968Z,17.66
2022-08-22T23:48:02.702Z,17.73
2022-08-22T23:50:30.100Z,17.69
2022-08-22T23:52:57.522Z,17.76
2022-08-22T23:55:24.882Z,17.70
2022-08-22T23:57:52.293Z,17.75
